Time,TemperatureF,DewpointF,PressureIn,WindDirection,WindDirectionDegrees,WindSpeedMPH,WindSpeedGustMPH,Humidity,HourlyPrecipIn,Conditions,Clouds,dailyrainin,SoftwareType,DateUTC
2013-01-19 00:02:00,26.8,14.8,30.38,SSW,201,3.0,4.0,60,0.00,,,0.00,Wunderground v.1.15,2013-01-19 05:02:00,
2013-01-19 00:04:00,26.8,14.4,30.38,SSW,209,3.0,4.0,59,0.00,,,0.00,Wunderground v.1.15,2013-01-19 05:04:00,
2013-01-19 00:05:00,26.8,14.4,30.38,South,186,3.0,4.0,59,0.00,,,0.00,Wunderground v.1.15,2013-01-19 05:05:00,
2013-01-19 00:11:00,26.8,14.4,30.38,South,177,3.0,4.0,59,0.00,,,0.00,Wunderground v.1.15,2013-01-19 05:11:00,
2013-01-19 00:16:00,26.8,14.8,30.38,South,186,3.0,4.0,60,0.00,,,0.00,Wunderground v.1.15,2013-01-19 05:16:00,
2013-01-19 00:22:00,27.0,14.9,30.37,SSW,192,3.0,5.0,60,0.00,,,0.00,Wunderground v.1.15,2013-01-19 05:22:00,
2013-01-19 00:28:00,27.2,15.1,30.37,South,188,3.0,5.0,60,0.00,,,0.00,Wunderground v.1.15,2013-01-19 05:28:00,
2013-01-19 00:34:00,27.4,14.5,30.37,SSW,196,3.0,4.0,58,0.00,,,0.00,Wunderground v.1.15,2013-01-19 05:34:00,
2013-01-19 00:39:00,27.7,14.8,30.37,SSW,192,3.0,4.0,58,0.00,,,0.00,Wunderground v.1.15,2013-01-19 05:39:00,
2013-01-19 00:45:00,27.8,14.9,30.38,SW,234,3.0,4.0,58,0.00,,,0.00,Wunderground v.1.15,2013-01-19 05:45:00,
2013-01-19 00:50:00,27.9,15.0,30.37,SSW,192,3.0,4.0,58,0.00,,,0.00,Wunderground v.1.15,2013-01-19 05:50:00,
2013-01-19 00:56:00,28.1,15.2,30.37,South,191,4.0,6.0,58,0.00,,,0.00,Wunderground v.1.15,2013-01-19 05:56:00,
2013-01-19 01:01:00,28.2,14.9,30.37,SW,228,4.0,5.0,57,0.00,,,0.00,Wunderground v.1.15,2013-01-19 06:01:00,
2013-01-19 01:07:00,28.2,15.3,30.37,South,185,4.0,5.0,58,0.00,,,0.00,Wunderground v.1.15,2013-01-19 06:07:00,
2013-01-19 01:12:00,28.2,16.1,30.37,South,188,2.0,3.0,60,0.00,,,0.00,Wunderground v.1.15,2013-01-19 06:12:00,
2013-01-19 01:18:00,28.2,16.1,30.37,South,178,3.0,5.0,60,0.00,,,0.00,Wunderground v.1.15,2013-01-19 06:18:00,
2013-01-19 01:24:00,28.3,15.8,30.37,SSW,210,3.0,5.0,59,0.00,,,0.00,Wunderground v.1.15,2013-01-19 06:24:00,
2013-01-19 01:29:00,28.4,15.5,30.37,SSE,155,4.0,8.0,58,0.00,,,0.00,Wunderground v.1.15,2013-01-19 06:29:00,
2013-01-19 01:34:00,28.5,16.0,30.37,South,191,4.0,7.0,59,0.00,,,0.00,Wunderground v.1.15,2013-01-19 06:34:00,
2013-01-19 01:39:00,28.6,15.7,30.37,SW,223,5.0,8.0,58,0.00,,,0.00,Wunderground v.1.15,2013-01-19 06:39:00,
2013-01-19 01:45:00,28.7,15.4,30.37,SW,232,6.0,9.0,57,0.00,,,0.00,Wunderground v.1.15,2013-01-19 06:45:00,
2013-01-19 01:50:00,28.8,15.5,30.37,SW,219,6.0,6.0,57,0.00,,,0.00,Wunderground v.1.15,2013-01-19 06:50:00,
2013-01-19 01:57:00,28.9,15.6,30.37,South,184,5.0,11.0,57,0.00,,,0.00,Wunderground v.1.15,2013-01-19 06:57:00,
2013-01-19 02:03:00,28.9,15.2,30.37,SW,234,6.0,7.0,56,0.00,,,0.00,Wunderground v.1.15,2013-01-19 07:03:00,
2013-01-19 02:08:00,28.9,15.2,30.36,SW,235,6.0,8.0,56,0.00,,,0.00,Wunderground v.1.15,2013-01-19 07:08:00,
2013-01-19 02:14:00,28.9,15.2,30.36,SSW,203,6.0,9.0,56,0.00,,,0.00,Wunderground v.1.15,2013-01-19 07:14:00,
2013-01-19 02:19:00,28.8,15.1,30.36,SW,225,6.0,11.0,56,0.00,,,0.00,Wunderground v.1.15,2013-01-19 07:19:00,
2013-01-19 02:24:00,28.8,15.1,30.36,SW,221,6.0,9.0,56,0.00,,,0.00,Wunderground v.1.15,2013-01-19 07:24:00,
2013-01-19 02:30:00,28.8,15.5,30.36,SSW,196,6.0,7.0,57,0.00,,,0.00,Wunderground v.1.15,2013-01-19 07:30:00,
2013-01-19 02:36:00,28.7,15.4,30.36,South,180,5.0,8.0,57,0.00,,,0.00,Wunderground v.1.15,2013-01-19 07:36:00,
2013-01-19 02:42:00,28.7,15.4,30.35,WSW,237,5.0,9.0,57,0.00,,,0.00,Wunderground v.1.15,2013-01-19 07:42:00,
2013-01-19 02:48:00,28.7,15.0,30.35,SSW,211,5.0,9.0,56,0.00,,,0.00,Wunderground v.1.15,2013-01-19 07:48:00,
2013-01-19 02:54:00,28.7,15.0,30.35,SSE,156,5.0,6.0,56,0.00,,,0.00,Wunderground v.1.15,2013-01-19 07:54:00,
2013-01-19 02:59:00,28.7,15.4,30.35,SW,221,6.0,12.0,57,0.00,,,0.00,Wunderground v.1.15,2013-01-19 07:59:00,
2013-01-19 03:05:00,28.9,15.6,30.35,SW,215,6.0,6.0,57,0.00,,,0.00,Wunderground v.1.15,2013-01-19 08:05:00,
2013-01-19 03:10:00,29.0,15.7,30.34,SSW,204,5.0,5.0,57,0.00,,,0.00,Wunderground v.1.15,2013-01-19 08:10:00,
2013-01-19 03:16:00,28.9,15.6,30.34,SW,222,5.0,6.0,57,0.00,,,0.00,Wunderground v.1.15,2013-01-19 08:16:00,
2013-01-19 03:21:00,28.9,16.0,30.34,SSW,196,4.0,6.0,58,0.00,,,0.00,Wunderground v.1.15,2013-01-19 08:21:00,
2013-01-19 03:27:00,28.8,15.9,30.34,SSW,206,4.0,6.0,58,0.00,,,0.00,Wunderground v.1.15,2013-01-19 08:27:00,
2013-01-19 03:32:00,28.7,15.8,30.33,South,182,3.0,4.0,58,0.00,,,0.00,Wunderground v.1.15,2013-01-19 08:32:00,
2013-01-19 03:37:00,28.5,16.0,30.33,South,181,3.0,4.0,59,0.00,,,0.00,Wunderground v.1.15,2013-01-19 08:37:00,
2013-01-19 03:43:00,28.3,16.9,30.33,South,180,3.0,3.0,62,0.00,,,0.00,Wunderground v.1.15,2013-01-19 08:43:00,
2013-01-19 03:49:00,28.0,17.0,30.33,South,175,2.0,3.0,63,0.00,,,0.00,Wunderground v.1.15,2013-01-19 08:49:00,
2013-01-19 03:54:00,27.6,17.0,30.33,South,190,2.0,3.0,64,0.00,,,0.00,Wunderground v.1.15,2013-01-19 08:54:00,
2013-01-19 04:00:00,27.3,17.1,30.33,South,190,2.0,2.0,65,0.00,,,0.00,Wunderground v.1.15,2013-01-19 09:00:00,
2013-01-19 04:06:00,27.0,17.1,30.32,South,190,1.0,2.0,66,0.00,,,0.00,Wunderground v.1.15,2013-01-19 09:06:00,
2013-01-19 04:11:00,26.8,17.3,30.32,South,180,1.0,3.0,67,0.00,,,0.00,Wunderground v.1.15,2013-01-19 09:11:00,
2013-01-19 04:17:00,26.6,17.1,30.32,South,180,1.0,3.0,67,0.00,,,0.00,Wunderground v.1.15,2013-01-19 09:17:00,
2013-01-19 04:23:00,26.4,17.6,30.32,South,180,1.0,1.0,69,0.00,,,0.00,Wunderground v.1.15,2013-01-19 09:23:00,
2013-01-19 04:28:00,26.2,17.4,30.32,South,180,0.0,1.0,69,0.00,,,0.00,Wunderground v.1.15,2013-01-19 09:28:00,
2013-01-19 04:34:00,25.9,17.5,30.32,South,180,0.0,2.0,70,0.00,,,0.00,Wunderground v.1.15,2013-01-19 09:34:00,
2013-01-19 04:40:00,25.6,17.8,30.31,South,180,0.0,0.0,72,0.00,,,0.00,Wunderground v.1.15,2013-01-19 09:40:00,
2013-01-19 04:46:00,25.3,18.2,30.31,South,169,0.0,3.0,74,0.00,,,0.00,Wunderground v.1.15,2013-01-19 09:46:00,
2013-01-19 04:51:00,25.1,18.0,30.31,South,186,1.0,1.0,74,0.00,,,0.00,Wunderground v.1.15,2013-01-19 09:51:00,
2013-01-19 04:57:00,25.1,18.0,30.31,SSW,195,1.0,4.0,74,0.00,,,0.00,Wunderground v.1.15,2013-01-19 09:57:00,
2013-01-19 05:02:00,25.8,18.3,30.31,SSW,209,2.0,3.0,73,0.00,,,0.00,Wunderground v.1.15,2013-01-19 10:02:00,
2013-01-19 05:08:00,26.9,18.7,30.31,SSW,199,3.0,4.0,71,0.00,,,0.00,Wunderground v.1.15,2013-01-19 10:08:00,
2013-01-19 05:14:00,28.2,19.7,30.31,SW,216,5.0,6.0,70,0.00,,,0.00,Wunderground v.1.15,2013-01-19 10:14:00,
2013-01-19 05:19:00,29.2,20.3,30.30,South,190,5.0,7.0,69,0.00,,,0.00,Wunderground v.1.15,2013-01-19 10:19:00,
2013-01-19 05:24:00,29.8,20.2,30.30,South,175,6.0,10.0,67,0.00,,,0.00,Wunderground v.1.15,2013-01-19 10:24:00,
2013-01-19 05:29:00,30.2,20.6,30.30,South,185,5.0,10.0,67,0.00,,,0.00,Wunderground v.1.15,2013-01-19 10:29:00,
2013-01-19 05:35:00,30.4,20.7,30.30,South,190,5.0,5.0,67,0.00,,,0.00,Wunderground v.1.15,2013-01-19 10:35:00,
2013-01-19 05:40:00,30.5,20.8,30.29,South,178,5.0,8.0,67,0.00,,,0.00,Wunderground v.1.15,2013-01-19 10:40:00,
2013-01-19 05:46:00,30.7,21.4,30.29,SSW,213,6.0,9.0,68,0.00,,,0.00,Wunderground v.1.15,2013-01-19 10:46:00,
2013-01-19 05:52:00,30.8,21.5,30.29,South,175,6.0,6.0,68,0.00,,,0.00,Wunderground v.1.15,2013-01-19 10:52:00,
2013-01-19 05:59:00,30.8,21.5,30.29,SSW,199,5.0,6.0,68,0.00,,,0.00,Wunderground v.1.15,2013-01-19 10:59:00,
2013-01-19 06:04:00,30.8,21.8,30.28,SSE,153,5.0,7.0,69,0.00,,,0.00,Wunderground v.1.15,2013-01-19 11:04:00,
2013-01-19 06:09:00,30.8,22.2,30.28,SSW,206,5.0,7.0,70,0.00,,,0.00,Wunderground v.1.15,2013-01-19 11:09:00,
2013-01-19 07:48:00,31.4,24.1,30.26,WSW,244,6.0,7.0,74,0.00,,,0.00,Wunderground v.1.15,2013-01-19 12:48:00,
2013-01-19 07:50:00,31.5,24.2,30.26,SSW,208,6.0,6.0,74,0.00,,,0.00,Wunderground v.1.15,2013-01-19 12:50:00,
2013-01-19 07:51:00,31.5,24.2,30.26,South,187,6.0,6.0,74,0.00,,,0.00,Wunderground v.1.15,2013-01-19 12:51:00,
2013-01-19 07:55:00,31.6,24.3,30.26,WSW,244,6.0,8.0,74,0.00,,,0.00,Wunderground v.1.15,2013-01-19 12:55:00,
2013-01-19 08:00:00,31.8,24.5,30.26,SSW,210,6.0,6.0,74,0.00,,,0.00,Wunderground v.1.15,2013-01-19 13:00:00,
2013-01-19 08:06:00,32.0,24.6,30.26,SW,225,5.0,13.0,74,0.00,,,0.00,Wunderground v.1.15,2013-01-19 13:06:00,
2013-01-19 08:11:00,32.2,24.8,30.26,SW,217,5.0,5.0,74,0.00,,,0.00,Wunderground v.1.15,2013-01-19 13:11:00,
2013-01-19 08:17:00,32.4,25.0,30.26,South,189,6.0,12.0,74,0.00,,,0.00,Wunderground v.1.15,2013-01-19 13:17:00,
2013-01-19 08:22:00,32.5,25.1,30.25,SSW,206,6.0,7.0,74,0.00,,,0.00,Wunderground v.1.15,2013-01-19 13:22:00,
2013-01-19 08:28:00,32.7,25.3,30.26,WSW,242,5.0,8.0,74,0.00,,,0.00,Wunderground v.1.15,2013-01-19 13:28:00,
2013-01-19 08:33:00,32.8,25.4,30.26,SSW,213,6.0,8.0,74,0.00,,,0.00,Wunderground v.1.15,2013-01-19 13:33:00,
2013-01-19 08:39:00,33.0,25.6,30.26,SSW,200,6.0,9.0,74,0.00,,,0.00,Wunderground v.1.15,2013-01-19 13:39:00,
2013-01-19 08:45:00,33.2,25.5,30.25,SW,215,7.0,17.0,73,0.00,,,0.00,Wunderground v.1.15,2013-01-19 13:45:00,
2013-01-19 08:51:00,33.2,25.8,30.26,South,184,7.0,9.0,74,0.00,,,0.00,Wunderground v.1.15,2013-01-19 13:51:00,
2013-01-19 08:56:00,33.4,26.0,30.26,South,190,7.0,9.0,74,0.00,,,0.00,Wunderground v.1.15,2013-01-19 13:56:00,
2013-01-19 09:02:00,33.6,25.9,30.25,SSW,207,7.0,8.0,73,0.00,,,0.00,Wunderground v.1.15,2013-01-19 14:02:00,
2013-01-19 09:08:00,33.8,26.1,30.25,SW,217,7.0,10.0,73,0.00,,,0.00,Wunderground v.1.15,2013-01-19 14:08:00,
2013-01-19 09:13:00,34.2,26.4,30.25,SSW,200,6.0,7.0,73,0.00,,,0.00,Wunderground v.1.15,2013-01-19 14:13:00,
2013-01-19 09:19:00,34.5,26.4,30.26,SSW,203,6.0,7.0,72,0.00,,,0.00,Wunderground v.1.15,2013-01-19 14:19:00,
2013-01-19 09:24:00,34.8,26.4,30.25,SW,227,7.0,10.0,71,0.00,,,0.00,Wunderground v.1.15,2013-01-19 14:24:00,
2013-01-19 09:29:00,35.1,27.0,30.25,WSW,240,8.0,10.0,72,0.00,,,0.00,Wunderground v.1.15,2013-01-19 14:29:00,
2013-01-19 09:35:00,35.6,27.1,30.25,SW,218,8.0,9.0,71,0.00,,,0.00,Wunderground v.1.15,2013-01-19 14:35:00,
2013-01-19 09:41:00,36.0,27.2,30.25,SSW,212,7.0,8.0,70,0.00,,,0.00,Wunderground v.1.15,2013-01-19 14:41:00,
2013-01-19 09:47:00,36.0,26.8,30.25,SW,215,7.0,8.0,69,0.00,,,0.00,Wunderground v.1.15,2013-01-19 14:47:00,
2013-01-19 09:52:00,36.1,26.9,30.25,SW,214,7.0,8.0,69,0.00,,,0.00,Wunderground v.1.15,2013-01-19 14:52:00,
2013-01-19 09:58:00,36.1,27.3,30.24,South,178,6.0,8.0,70,0.00,,,0.00,Wunderground v.1.15,2013-01-19 14:58:00,
2013-01-19 10:03:00,36.1,26.9,30.24,SSW,202,6.0,7.0,69,0.00,,,0.00,Wunderground v.1.15,2013-01-19 15:03:00,
2013-01-19 10:09:00,36.2,27.0,30.24,SW,234,7.0,11.0,69,0.00,,,0.00,Wunderground v.1.15,2013-01-19 15:09:00,
2013-01-19 10:14:00,36.3,27.4,30.23,SSW,213,6.0,7.0,70,0.00,,,0.00,Wunderground v.1.15,2013-01-19 15:14:00,
2013-01-19 10:20:00,36.5,27.3,30.23,SSW,200,6.0,6.0,69,0.00,,,0.00,Wunderground v.1.15,2013-01-19 15:20:00,
2013-01-19 10:25:00,36.7,27.5,30.23,SW,217,5.0,11.0,69,0.00,,,0.00,Wunderground v.1.15,2013-01-19 15:25:00,
2013-01-19 10:31:00,36.7,27.5,30.23,WSW,239,6.0,8.0,69,0.00,,,0.00,Wunderground v.1.15,2013-01-19 15:31:00,
2013-01-19 10:36:00,36.9,27.3,30.22,SW,232,7.0,10.0,68,0.00,,,0.00,Wunderground v.1.15,2013-01-19 15:36:00,
2013-01-19 10:42:00,37.1,27.5,30.22,SSW,208,6.0,7.0,68,0.00,,,0.00,Wunderground v.1.15,2013-01-19 15:42:00,
2013-01-19 10:47:00,37.3,27.7,30.21,WSW,252,6.0,7.0,68,0.00,,,0.00,Wunderground v.1.15,2013-01-19 15:47:00,
2013-01-19 10:53:00,37.7,27.7,30.21,SW,217,5.0,8.0,67,0.00,,,0.00,Wunderground v.1.15,2013-01-19 15:53:00,
2013-01-19 10:59:00,37.9,27.9,30.20,WSW,242,5.0,8.0,67,0.00,,,0.00,Wunderground v.1.15,2013-01-19 15:59:00,
2013-01-19 11:04:00,38.0,27.6,30.21,South,189,6.0,10.0,66,0.00,,,0.00,Wunderground v.1.15,2013-01-19 16:04:00,
2013-01-19 11:09:00,38.2,27.8,30.20,SSW,196,7.0,10.0,66,0.00,,,0.00,Wunderground v.1.15,2013-01-19 16:09:00,
2013-01-19 11:14:00,38.4,28.0,30.20,South,188,7.0,8.0,66,0.00,,,0.00,Wunderground v.1.15,2013-01-19 16:14:00,
2013-01-19 11:19:00,38.7,27.9,30.19,SW,220,6.0,8.0,65,0.00,,,0.00,Wunderground v.1.15,2013-01-19 16:19:00,
2013-01-19 11:25:00,38.9,28.1,30.18,SE,138,6.0,7.0,65,0.00,,,0.00,Wunderground v.1.15,2013-01-19 16:25:00,
2013-01-19 11:31:00,39.1,28.3,30.18,SW,224,6.0,7.0,65,0.00,,,0.00,Wunderground v.1.15,2013-01-19 16:31:00,
2013-01-19 11:37:00,39.5,28.3,30.17,SW,229,6.0,8.0,64,0.00,,,0.00,Wunderground v.1.15,2013-01-19 16:37:00,
2013-01-19 11:43:00,39.7,28.5,30.17,SSW,213,7.0,8.0,64,0.00,,,0.00,Wunderground v.1.15,2013-01-19 16:43:00,
2013-01-19 11:49:00,40.0,28.8,30.16,SW,214,5.0,8.0,64,0.00,,,0.00,Wunderground v.1.15,2013-01-19 16:49:00,
2013-01-19 11:54:00,40.2,29.0,30.16,SW,222,5.0,6.0,64,0.00,,,0.00,Wunderground v.1.15,2013-01-19 16:54:00,
2013-01-19 12:00:00,40.2,28.6,30.15,SSW,202,5.0,5.0,63,0.00,,,0.00,Wunderground v.1.15,2013-01-19 17:00:00,
2013-01-19 12:06:00,40.3,29.1,30.15,SW,218,4.0,7.0,64,0.00,,,0.00,Wunderground v.1.15,2013-01-19 17:06:00,
2013-01-19 12:11:00,40.4,29.2,30.14,SW,230,4.0,7.0,64,0.00,,,0.00,Wunderground v.1.15,2013-01-19 17:11:00,
2013-01-19 12:17:00,40.7,29.5,30.14,South,187,4.0,7.0,64,0.00,,,0.00,Wunderground v.1.15,2013-01-19 17:17:00,
2013-01-19 12:23:00,40.9,29.3,30.13,SSW,196,4.0,7.0,63,0.00,,,0.00,Wunderground v.1.15,2013-01-19 17:23:00,
2013-01-19 12:29:00,41.2,29.2,30.13,SSW,213,5.0,7.0,62,0.00,,,0.00,Wunderground v.1.15,2013-01-19 17:29:00,
2013-01-19 12:34:00,41.5,29.4,30.12,SSW,192,5.0,7.0,62,0.00,,,0.00,Wunderground v.1.15,2013-01-19 17:34:00,
2013-01-19 12:40:00,41.9,29.4,30.12,SSE,167,5.0,5.0,61,0.00,,,0.00,Wunderground v.1.15,2013-01-19 17:40:00,
2013-01-19 12:46:00,42.2,29.3,30.11,SW,226,4.0,6.0,60,0.00,,,0.00,Wunderground v.1.15,2013-01-19 17:46:00,
2013-01-19 12:52:00,42.6,29.3,30.11,SSW,206,4.0,7.0,59,0.00,,,0.00,Wunderground v.1.15,2013-01-19 17:52:00,
2013-01-19 12:58:00,42.8,29.0,30.11,South,184,6.0,8.0,58,0.00,,,0.00,Wunderground v.1.15,2013-01-19 17:58:00,
2013-01-19 13:03:00,43.0,28.8,30.10,SSW,201,6.0,10.0,57,0.00,,,0.00,Wunderground v.1.15,2013-01-19 18:03:00,
2013-01-19 13:09:00,43.3,29.1,30.10,SW,226,6.0,10.0,57,0.00,,,0.00,Wunderground v.1.15,2013-01-19 18:09:00,
2013-01-19 13:14:00,43.4,28.7,30.10,SSW,198,5.0,9.0,56,0.00,,,0.00,Wunderground v.1.15,2013-01-19 18:14:00,
2013-01-19 13:20:00,43.6,28.9,30.10,SW,218,5.0,5.0,56,0.00,,,0.00,Wunderground v.1.15,2013-01-19 18:20:00,
2013-01-19 13:25:00,43.7,29.0,30.09,West,271,5.0,5.0,56,0.00,,,0.00,Wunderground v.1.15,2013-01-19 18:25:00,
2013-01-19 13:32:00,43.9,28.8,30.09,SW,224,5.0,6.0,55,0.00,,,0.00,Wunderground v.1.15,2013-01-19 18:32:00,
2013-01-19 13:37:00,43.9,29.2,30.09,WSW,240,5.0,9.0,56,0.00,,,0.00,Wunderground v.1.15,2013-01-19 18:37:00,
2013-01-19 13:43:00,43.9,28.8,30.09,SSW,211,6.0,7.0,55,0.00,,,0.00,Wunderground v.1.15,2013-01-19 18:43:00,
2013-01-19 13:49:00,43.9,28.8,30.08,SW,216,6.0,11.0,55,0.00,,,0.00,Wunderground v.1.15,2013-01-19 18:49:00,
2013-01-19 13:54:00,44.0,28.9,30.08,SW,227,6.0,9.0,55,0.00,,,0.00,Wunderground v.1.15,2013-01-19 18:54:00,
2013-01-19 13:59:00,44.0,28.9,30.08,South,191,5.0,9.0,55,0.00,,,0.00,Wunderground v.1.15,2013-01-19 18:59:00,
2013-01-19 14:04:00,44.1,28.9,30.08,South,187,5.0,8.0,55,0.00,,,0.00,Wunderground v.1.15,2013-01-19 19:04:00,
2013-01-19 14:10:00,44.1,28.9,30.07,SW,219,5.0,5.0,55,0.00,,,0.00,Wunderground v.1.15,2013-01-19 19:10:00,
2013-01-19 14:15:00,44.2,29.0,30.07,WSW,253,4.0,6.0,55,0.00,,,0.00,Wunderground v.1.15,2013-01-19 19:15:00,
2013-01-19 14:20:00,44.2,28.6,30.07,SSW,213,5.0,7.0,54,0.00,,,0.00,Wunderground v.1.15,2013-01-19 19:20:00,
2013-01-19 14:26:00,44.4,29.2,30.07,SSW,203,5.0,7.0,55,0.00,,,0.00,Wunderground v.1.15,2013-01-19 19:26:00,
2013-01-19 14:34:00,44.5,28.9,30.06,SSW,201,5.0,5.0,54,0.00,,,0.00,Wunderground v.1.15,2013-01-19 19:34:00,
2013-01-19 14:39:00,44.6,29.0,30.07,WSW,241,5.0,6.0,54,0.00,,,0.00,Wunderground v.1.15,2013-01-19 19:39:00,
2013-01-19 14:45:00,44.7,29.5,30.06,WSW,240,4.0,8.0,55,0.00,,,0.00,Wunderground v.1.15,2013-01-19 19:45:00,
2013-01-19 14:50:00,44.8,29.2,30.06,SSW,211,4.0,6.0,54,0.00,,,0.00,Wunderground v.1.15,2013-01-19 19:50:00,
2013-01-19 14:55:00,44.9,28.8,30.06,SSW,211,5.0,8.0,53,0.00,,,0.00,Wunderground v.1.15,2013-01-19 19:55:00,
2013-01-19 15:01:00,45.0,28.9,30.06,West,263,4.0,4.0,53,0.00,,,0.00,Wunderground v.1.15,2013-01-19 20:01:00,
2013-01-19 15:06:00,45.0,28.9,30.06,SW,232,4.0,4.0,53,0.00,,,0.00,Wunderground v.1.15,2013-01-19 20:06:00,
2013-01-19 15:12:00,45.1,29.0,30.06,SW,214,4.0,5.0,53,0.00,,,0.00,Wunderground v.1.15,2013-01-19 20:12:00,
2013-01-19 15:17:00,45.2,29.5,30.06,SSW,211,3.0,6.0,54,0.00,,,0.00,Wunderground v.1.15,2013-01-19 20:17:00,
2013-01-19 15:22:00,45.2,29.1,30.06,SW,227,3.0,6.0,53,0.00,,,0.00,Wunderground v.1.15,2013-01-19 20:22:00,
2013-01-19 15:27:00,45.3,29.2,30.06,SW,223,3.0,6.0,53,0.00,,,0.00,Wunderground v.1.15,2013-01-19 20:27:00,
2013-01-19 15:34:00,45.3,29.2,30.06,SW,219,2.0,4.0,53,0.00,,,0.00,Wunderground v.1.15,2013-01-19 20:34:00,
2013-01-19 15:39:00,45.3,29.2,30.06,West,262,1.0,4.0,53,0.00,,,0.00,Wunderground v.1.15,2013-01-19 20:39:00,
2013-01-19 15:44:00,45.2,28.6,30.05,SSW,196,1.0,2.0,52,0.00,,,0.00,Wunderground v.1.15,2013-01-19 20:44:00,
2013-01-19 15:50:00,45.2,29.1,30.05,SSW,194,2.0,2.0,53,0.00,,,0.00,Wunderground v.1.15,2013-01-19 20:50:00,
2013-01-19 15:55:00,45.1,28.5,30.05,SW,221,3.0,5.0,52,0.00,,,0.00,Wunderground v.1.15,2013-01-19 20:55:00,
2013-01-19 16:00:00,45.1,29.4,30.05,SW,228,2.0,2.0,54,0.00,,,0.00,Wunderground v.1.15,2013-01-19 21:00:00,
2013-01-19 16:07:00,44.8,30.0,30.05,SW,227,1.0,2.0,56,0.00,,,0.00,Wunderground v.1.15,2013-01-19 21:07:00,
2013-01-19 16:13:00,44.4,30.1,30.05,SW,227,1.0,1.0,57,0.00,,,0.00,Wunderground v.1.15,2013-01-19 21:13:00,
2013-01-19 16:18:00,44.1,29.4,30.04,SW,227,0.0,1.0,56,0.00,,,0.00,Wunderground v.1.15,2013-01-19 21:18:00,
2013-01-19 16:24:00,43.7,29.9,30.04,SW,227,0.0,0.0,58,0.00,,,0.00,Wunderground v.1.15,2013-01-19 21:24:00,
2013-01-19 16:29:00,43.4,29.6,30.04,SW,227,0.0,0.0,58,0.00,,,0.00,Wunderground v.1.15,2013-01-19 21:29:00,
2013-01-19 16:35:00,43.0,30.1,30.04,SW,227,0.0,0.0,60,0.00,,,0.00,Wunderground v.1.15,2013-01-19 21:35:00,
2013-01-19 16:40:00,42.8,30.7,30.04,SW,227,0.0,0.0,62,0.00,,,0.00,Wunderground v.1.15,2013-01-19 21:40:00,
2013-01-19 16:46:00,42.3,31.0,30.03,SW,227,0.0,1.0,64,0.00,,,0.00,Wunderground v.1.15,2013-01-19 21:46:00,
2013-01-19 16:51:00,42.0,31.5,30.03,SW,227,0.0,0.0,66,0.00,,,0.00,Wunderground v.1.15,2013-01-19 21:51:00,
2013-01-19 16:57:00,41.4,30.5,30.03,SW,227,0.0,1.0,65,0.00,,,0.00,Wunderground v.1.15,2013-01-19 21:57:00,
2013-01-19 17:04:00,41.3,29.6,30.03,SSW,201,2.0,3.0,63,0.00,,,0.00,Wunderground v.1.15,2013-01-19 22:04:00,
2013-01-19 17:09:00,41.5,29.4,30.03,SSW,202,2.0,3.0,62,0.00,,,0.00,Wunderground v.1.15,2013-01-19 22:09:00,
2013-01-19 17:14:00,41.6,29.9,30.03,SSW,202,1.0,3.0,63,0.00,,,0.00,Wunderground v.1.15,2013-01-19 22:14:00,
2013-01-19 17:20:00,41.8,28.9,30.03,SSW,194,2.0,2.0,60,0.00,,,0.00,Wunderground v.1.15,2013-01-19 22:20:00,
2013-01-19 17:25:00,42.3,29.4,30.03,SSW,203,2.0,3.0,60,0.00,,,0.00,Wunderground v.1.15,2013-01-19 22:25:00,
2013-01-19 17:31:00,43.0,28.8,30.03,SSW,212,2.0,4.0,57,0.00,,,0.00,Wunderground v.1.15,2013-01-19 22:31:00,
2013-01-19 17:36:00,44.1,28.9,30.03,SW,224,3.0,4.0,55,0.00,,,0.00,Wunderground v.1.15,2013-01-19 22:36:00,
2013-01-19 17:42:00,44.5,28.4,30.03,SSW,198,3.0,5.0,53,0.00,,,0.00,Wunderground v.1.15,2013-01-19 22:42:00,
2013-01-19 17:48:00,45.0,28.4,30.02,SSW,213,3.0,5.0,52,0.00,,,0.00,Wunderground v.1.15,2013-01-19 22:48:00,
2013-01-19 17:54:00,45.2,28.6,30.02,SW,224,3.0,4.0,52,0.00,,,0.00,Wunderground v.1.15,2013-01-19 22:54:00,
2013-01-19 17:59:00,45.3,28.7,30.02,SW,220,3.0,4.0,52,0.00,,,0.00,Wunderground v.1.15,2013-01-19 22:59:00,
2013-01-19 18:04:00,45.3,28.7,30.02,South,184,3.0,4.0,52,0.00,,,0.00,Wunderground v.1.15,2013-01-19 23:04:00,
2013-01-19 18:09:00,45.3,28.7,30.02,SSW,200,2.0,5.0,52,0.00,,,0.00,Wunderground v.1.15,2013-01-19 23:09:00,
2013-01-19 18:15:00,45.2,29.5,30.02,SW,215,2.0,3.0,54,0.00,,,0.00,Wunderground v.1.15,2013-01-19 23:15:00,
2013-01-19 18:21:00,45.1,29.9,30.02,SW,217,2.0,2.0,55,0.00,,,0.00,Wunderground v.1.15,2013-01-19 23:21:00,
2013-01-19 18:27:00,44.8,30.5,30.02,SSW,201,1.0,2.0,57,0.00,,,0.00,Wunderground v.1.15,2013-01-19 23:27:00,
2013-01-19 18:32:00,44.4,30.1,30.02,SW,223,1.0,4.0,57,0.00,,,0.00,Wunderground v.1.15,2013-01-19 23:32:00,
2013-01-19 18:39:00,44.3,30.0,30.02,SSW,194,3.0,4.0,57,0.00,,,0.00,Wunderground v.1.15,2013-01-19 23:39:00,
2013-01-19 18:44:00,44.7,30.0,30.02,South,191,3.0,5.0,56,0.00,,,0.00,Wunderground v.1.15,2013-01-19 23:44:00,
2013-01-19 18:50:00,44.9,30.1,30.01,SW,228,3.0,5.0,56,0.00,,,0.00,Wunderground v.1.15,2013-01-19 23:50:00,
2013-01-19 18:55:00,45.1,30.3,30.01,SW,215,3.0,5.0,56,0.00,,,0.00,Wunderground v.1.15,2013-01-19 23:55:00,
2013-01-19 19:00:00,45.4,30.2,30.01,SW,219,4.0,4.0,55,0.00,,,0.00,Wunderground v.1.15,2013-01-20 00:00:00,
2013-01-19 19:06:00,45.4,30.2,30.01,SSW,210,3.0,5.0,55,0.00,,,0.00,Wunderground v.1.15,2013-01-20 00:06:00,
2013-01-19 19:13:00,45.5,30.3,30.01,South,173,4.0,7.0,55,0.00,,,0.00,Wunderground v.1.15,2013-01-20 00:13:00,
2013-01-19 19:18:00,45.6,30.8,30.01,South,171,4.0,7.0,56,0.00,,,0.00,Wunderground v.1.15,2013-01-20 00:18:00,
2013-01-19 19:24:00,45.6,30.3,30.00,SW,229,4.0,5.0,55,0.00,,,0.00,Wunderground v.1.15,2013-01-20 00:24:00,
2013-01-19 19:29:00,45.5,30.3,30.00,SSW,202,4.0,6.0,55,0.00,,,0.00,Wunderground v.1.15,2013-01-20 00:29:00,
2013-01-19 19:35:00,45.4,30.2,30.00,SSW,197,3.0,4.0,55,0.00,,,0.00,Wunderground v.1.15,2013-01-20 00:35:00,
2013-01-19 19:40:00,45.4,30.2,30.00,South,191,3.0,5.0,55,0.00,,,0.00,Wunderground v.1.15,2013-01-20 00:40:00,
2013-01-19 19:45:00,45.4,30.6,30.00,SE,146,4.0,6.0,56,0.00,,,0.00,Wunderground v.1.15,2013-01-20 00:45:00,
2013-01-19 19:51:00,45.3,30.5,30.00,South,191,4.0,5.0,56,0.00,,,0.00,Wunderground v.1.15,2013-01-20 00:51:00,
2013-01-19 19:57:00,45.3,30.5,29.99,SW,223,4.0,7.0,56,0.00,,,0.00,Wunderground v.1.15,2013-01-20 00:57:00,
2013-01-19 20:02:00,45.2,30.4,30.00,SSW,198,4.0,6.0,56,0.00,,,0.00,Wunderground v.1.15,2013-01-20 01:02:00,
2013-01-19 20:09:00,45.0,30.7,29.99,SSW,209,4.0,7.0,57,0.00,,,0.00,Wunderground v.1.15,2013-01-20 01:09:00,
2013-01-19 20:14:00,44.8,30.5,29.99,SSW,193,4.0,6.0,57,0.00,,,0.00,Wunderground v.1.15,2013-01-20 01:14:00,
2013-01-19 20:23:00,44.6,30.3,29.99,SSW,211,4.0,5.0,57,0.00,,,0.00,Wunderground v.1.15,2013-01-20 01:23:00,
2013-01-19 20:29:00,44.6,30.7,29.99,South,180,4.0,4.0,58,0.00,,,0.00,Wunderground v.1.15,2013-01-20 01:29:00,
2013-01-19 20:34:00,44.6,30.3,29.98,SSW,205,5.0,7.0,57,0.00,,,0.00,Wunderground v.1.15,2013-01-20 01:34:00,
2013-01-19 20:40:00,44.4,30.5,29.98,SSW,195,5.0,5.0,58,0.00,,,0.00,Wunderground v.1.15,2013-01-20 01:40:00,
2013-01-19 20:45:00,44.3,30.9,29.98,South,190,4.0,8.0,59,0.00,,,0.00,Wunderground v.1.15,2013-01-20 01:45:00,
2013-01-19 20:52:00,44.2,30.8,29.98,SSW,194,4.0,7.0,59,0.00,,,0.00,Wunderground v.1.15,2013-01-20 01:52:00,
2013-01-19 20:59:00,44.0,30.6,29.97,SSW,207,4.0,5.0,59,0.00,,,0.00,Wunderground v.1.15,2013-01-20 01:59:00,
2013-01-19 21:04:00,43.9,30.5,29.97,SW,234,4.0,6.0,59,0.00,,,0.00,Wunderground v.1.15,2013-01-20 02:04:00,
2013-01-19 21:10:00,43.9,30.5,29.97,SW,214,4.0,4.0,59,0.00,,,0.00,Wunderground v.1.15,2013-01-20 02:10:00,
2013-01-19 21:16:00,43.7,30.3,29.97,SSW,209,4.0,7.0,59,0.00,,,0.00,Wunderground v.1.15,2013-01-20 02:16:00,
2013-01-19 21:22:00,43.6,30.6,29.96,South,182,4.0,6.0,60,0.00,,,0.00,Wunderground v.1.15,2013-01-20 02:22:00,
2013-01-19 21:28:00,43.5,30.5,29.96,SSW,204,5.0,8.0,60,0.00,,,0.00,Wunderground v.1.15,2013-01-20 02:28:00,
2013-01-19 21:34:00,43.4,30.8,29.96,SSW,209,4.0,5.0,61,0.00,,,0.00,Wunderground v.1.15,2013-01-20 02:34:00,
2013-01-19 21:39:00,43.3,30.7,29.96,SW,226,4.0,6.0,61,0.00,,,0.00,Wunderground v.1.15,2013-01-20 02:39:00,
2013-01-19 21:44:00,43.3,30.7,29.96,SSW,197,5.0,6.0,61,0.00,,,0.00,Wunderground v.1.15,2013-01-20 02:44:00,
2013-01-19 21:50:00,43.2,30.6,29.95,SW,219,5.0,6.0,61,0.00,,,0.00,Wunderground v.1.15,2013-01-20 02:50:00,
2013-01-19 21:55:00,43.2,30.6,29.95,West,263,4.0,6.0,61,0.00,,,0.00,Wunderground v.1.15,2013-01-20 02:55:00,
2013-01-19 22:00:00,43.1,30.6,29.95,SW,215,5.0,8.0,61,0.00,,,0.00,Wunderground v.1.15,2013-01-20 03:00:00,
2013-01-19 22:06:00,43.0,30.5,29.95,SSW,192,5.0,9.0,61,0.00,,,0.00,Wunderground v.1.15,2013-01-20 03:06:00,
2013-01-19 22:13:00,43.0,30.5,29.94,South,182,6.0,7.0,61,0.00,,,0.00,Wunderground v.1.15,2013-01-20 03:13:00,
2013-01-19 22:19:00,43.0,30.5,29.94,South,185,6.0,10.0,61,0.00,,,0.00,Wunderground v.1.15,2013-01-20 03:19:00,
2013-01-19 22:24:00,42.9,30.4,29.94,SSW,198,5.0,8.0,61,0.00,,,0.00,Wunderground v.1.15,2013-01-20 03:24:00,
2013-01-19 22:30:00,43.0,30.5,29.94,SW,216,6.0,6.0,61,0.00,,,0.00,Wunderground v.1.15,2013-01-20 03:30:00,
2013-01-19 22:36:00,42.9,30.8,29.94,SSW,202,6.0,12.0,62,0.00,,,0.00,Wunderground v.1.15,2013-01-20 03:36:00,
2013-01-19 22:41:00,42.9,30.8,29.93,SW,235,6.0,9.0,62,0.00,,,0.00,Wunderground v.1.15,2013-01-20 03:41:00,
2013-01-19 22:47:00,42.8,30.7,29.93,WSW,240,5.0,9.0,62,0.00,,,0.00,Wunderground v.1.15,2013-01-20 03:47:00,
2013-01-19 22:52:00,42.7,30.6,29.93,SSW,194,5.0,6.0,62,0.00,,,0.00,Wunderground v.1.15,2013-01-20 03:52:00,
2013-01-19 22:58:00,42.7,30.6,29.93,SSW,193,5.0,8.0,62,0.00,,,0.00,Wunderground v.1.15,2013-01-20 03:58:00,
2013-01-19 23:04:00,42.6,30.5,29.92,SSW,197,5.0,10.0,62,0.00,,,0.00,Wunderground v.1.15,2013-01-20 04:04:00,
2013-01-19 23:09:00,42.6,30.5,29.92,SW,226,6.0,10.0,62,0.00,,,0.00,Wunderground v.1.15,2013-01-20 04:09:00,
2013-01-19 23:14:00,42.5,30.8,29.92,SSW,205,5.0,6.0,63,0.00,,,0.00,Wunderground v.1.15,2013-01-20 04:14:00,
2013-01-19 23:20:00,42.4,30.7,29.92,SW,221,5.0,5.0,63,0.00,,,0.00,Wunderground v.1.15,2013-01-20 04:20:00,
2013-01-19 23:26:00,42.4,30.7,29.91,SSW,192,5.0,8.0,63,0.00,,,0.00,Wunderground v.1.15,2013-01-20 04:26:00,
2013-01-19 23:31:00,42.4,30.7,29.91,SSW,200,5.0,11.0,63,0.00,,,0.00,Wunderground v.1.15,2013-01-20 04:31:00,
2013-01-19 23:36:00,42.3,30.6,29.90,SSW,204,6.0,11.0,63,0.00,,,0.00,Wunderground v.1.15,2013-01-20 04:36:00,
2013-01-19 23:41:00,42.3,30.6,29.90,SSW,210,6.0,8.0,63,0.00,,,0.00,Wunderground v.1.15,2013-01-20 04:41:00,
2013-01-19 23:47:00,42.3,30.6,29.90,SSW,206,6.0,8.0,63,0.00,,,0.00,Wunderground v.1.15,2013-01-20 04:47:00,
2013-01-19 23:52:00,42.2,30.5,29.90,South,178,4.0,6.0,63,0.00,,,0.00,Wunderground v.1.15,2013-01-20 04:52:00,
2013-01-19 23:59:00,42.1,30.4,29.90,SSW,207,4.0,6.0,63,0.00,,,0.00,Wunderground v.1.15,2013-01-20 04:59:00,